Time;durP1;ratioP1;P1;durP2;ratioP2;P2;SDS_P1;SDS_P2;PMS_P1;PMS_P2;Temp;Humidity;BMP_temperature;BMP_pressure;BME280_temperature;BME280_humidity;BME280_pressure;Samples;Min_cycle;Max_cycle;Signal;HPM_P1;HPM_P2
2022/11/03 00:00:05;;;;;;;13.20;2.20;;;14.40;99.90;;;13.69;100.00;100883.94;4104371;29;20067;-81
2022/11/03 00:02:05;;;;;;;6.25;1.52;;;14.40;99.90;;;13.78;100.00;100885.56;4114590;28;20027;-81
2022/11/03 00:04:12;;;;;;;13.52;2.08;;;14.50;99.90;;;13.85;100.00;100897.13;4109018;28;20087;-82
2022/11/03 00:06:13;;;;;;;16.13;2.45;;;14.60;99.90;;;13.82;100.00;100881.56;4088858;29;20028;-81
2022/11/03 00:08:14;;;;;;;10.48;1.70;;;14.60;99.90;;;13.90;100.00;100878.88;4120634;28;20422;-81
2022/11/03 00:10:15;;;;;;;12.43;2.67;;;14.60;99.90;;;13.90;100.00;100856.81;4119758;28;20038;-81
2022/11/03 00:12:16;;;;;;;9.05;2.28;;;14.70;99.90;;;13.97;100.00;100874.53;4088527;29;20083;-80
2022/11/03 00:14:17;;;;;;;10.60;2.50;;;14.70;99.90;;;13.98;100.00;100862.91;4104265;29;20031;-81
2022/11/03 00:16:19;;;;;;;7.38;1.92;;;14.70;99.90;;;14.03;100.00;100857.91;4088396;29;20094;-82
2022/11/03 00:18:20;;;;;;;12.85;2.03;;;14.70;99.90;;;13.96;100.00;100849.00;4120313;28;20077;-81
2022/11/03 00:20:20;;;;;;;11.30;2.45;;;14.80;99.90;;;14.08;100.00;100855.56;4120100;28;20105;-80
2022/11/03 00:22:21;;;;;;;8.35;2.42;;;14.80;99.90;;;13.89;100.00;100826.03;4103972;29;20047;-81
2022/11/03 00:24:22;;;;;;;8.60;2.47;;;14.80;99.90;;;14.07;100.00;100855.72;4105519;29;20086;-81
2022/11/03 00:26:26;;;;;;;10.65;2.42;;;14.80;99.90;;;13.99;100.00;100840.69;4119877;28;20034;-80
2022/11/03 00:28:30;;;;;;;;;;;14.70;99.90;;;13.87;100.00;100834.13;4120139;28;20079;-82
2022/11/03 00:30:31;;;;;;;8.25;2.15;;;14.70;99.90;;;13.89;100.00;100834.78;4119729;28;20012;-81
2022/11/03 00:32:31;;;;;;;10.27;1.90;;;14.70;99.90;;;13.86;100.00;100832.47;4105471;29;20090;-82
2022/11/03 00:34:32;;;;;;;7.78;1.98;;;14.80;99.90;;;13.96;100.00;100830.44;4105175;29;20028;-82
2022/11/03 00:36:40;;;;;;;9.25;2.10;;;14.80;99.90;;;14.02;100.00;100821.78;4119997;28;20497;-81
2022/11/03 00:38:42;;;;;;;11.20;1.90;;;14.80;99.90;;;13.96;100.00;100811.88;4104914;29;20519;-81
2022/11/03 00:40:43;;;;;;;12.52;1.92;;;14.70;99.90;;;13.93;100.00;100809.56;4103885;29;20554;-82
2022/11/03 00:42:45;;;;;;;11.88;2.20;;;14.70;99.90;;;13.89;100.00;100810.13;4088117;29;20027;-82
2022/11/03 00:44:46;;;;;;;12.30;3.03;;;14.70;99.90;;;13.82;100.00;100796.72;4103659;29;20027;-82
2022/11/03 00:46:46;;;;;;;10.20;1.95;;;14.60;99.90;;;13.79;100.00;100786.47;4119702;28;20033;-82
2022/11/03 00:48:48;;;;;;;7.50;2.20;;;14.60;99.90;;;13.79;100.00;100786.47;4087869;29;20039;-81
2022/11/03 00:50:49;;;;;;;6.90;2.10;;;14.60;99.90;;;13.82;100.00;100786.13;4103440;29;20029;-82
2022/11/03 00:52:49;;;;;;;13.73;3.03;;;14.60;99.90;;;13.79;100.00;100778.50;4104755;29;20479;-82
2022/11/03 00:54:50;;;;;;;14.90;3.38;;;14.60;99.90;;;13.85;100.00;100786.59;4103520;29;20070;-82
2022/11/03 00:56:51;;;;;;;16.13;2.63;;;14.70;99.90;;;13.96;100.00;100793.31;4103756;29;20023;-82
2022/11/03 00:58:53;;;;;;;9.50;2.58;;;14.70;99.90;;;13.98;100.00;100778.03;4103685;29;20031;-81
2022/11/03 01:01:17;;;;;;;11.82;2.30;;;14.80;99.90;;;13.99;100.00;100765.59;4087539;29;20043;-81
2022/11/03 01:03:18;;;;;;;14.52;3.50;;;14.80;99.90;;;14.09;100.00;100767.03;4088048;29;20024;-82
2022/11/03 01:07:38;;;;;;;14.10;2.67;;;14.90;99.90;;;14.18;100.00;100751.88;4103681;29;20467;-82
2022/11/03 01:09:42;;;;;;;12.68;2.75;;;14.90;99.90;;;14.08;100.00;100733.53;4103314;29;20498;-82
2022/11/03 01:12:11;;;;;;;12.25;2.50;;;14.90;99.90;;;14.12;100.00;100748.09;4103601;29;20033;-82
2022/11/03 01:14:14;;;;;;;13.90;3.83;;;14.90;99.90;;;14.04;100.00;100732.22;4104603;29;20038;-82
2022/11/03 01:16:15;;;;;;;7.15;2.40;;;14.80;99.90;;;13.90;100.00;100718.94;4087413;29;20035;-82
2022/11/03 01:18:16;;;;;;;13.80;3.53;;;14.70;99.90;;;13.77;100.00;100708.91;4104624;29;20046;-82
2022/11/03 01:20:17;;;;;;;13.05;2.70;;;14.70;99.90;;;13.76;100.00;100720.53;4087104;29;20051;-82
2022/11/03 01:22:19;;;;;;;7.88;1.92;;;14.50;99.90;;;13.62;100.00;100719.47;4087244;29;20082;-81
2022/11/03 01:24:21;;;;;;;10.73;2.70;;;14.50;99.90;;;13.63;100.00;100713.16;4103359;29;20073;-81
2022/11/03 01:26:22;;;;;;;11.60;2.90;;;14.40;99.90;;;13.56;100.00;100717.50;4087420;29;20040;-81
2022/11/03 01:28:23;;;;;;;11.40;2.40;;;14.30;99.90;;;13.55;100.00;100715.06;4104360;29;20034;-81
2022/11/03 01:30:23;;;;;;;9.32;2.88;;;14.30;99.90;;;13.48;100.00;100714.09;4102912;28;20491;-82
2022/11/03 01:32:24;;;;;;;10.55;2.60;;;14.30;99.90;;;13.47;100.00;100699.22;4103115;29;20023;-81
2022/11/03 01:34:25;;;;;;;11.88;2.72;;;14.30;99.90;;;13.37;100.00;100685.34;4104117;29;20035;-82
2022/11/03 01:36:26;;;;;;;25.20;3.83;;;14.30;99.90;;;13.46;100.00;100695.72;4087176;29;20028;-82
2022/11/03 01:38:32;;;;;;;15.00;3.15;;;14.30;99.90;;;13.46;100.00;100679.00;4102980;29;20491;-81
2022/11/03 01:40:33;;;;;;;16.67;4.28;;;14.30;99.90;;;13.47;100.00;100701.88;4104453;29;20027;-81
2022/11/03 01:42:33;;;;;;;10.45;2.08;;;14.20;99.90;;;13.49;100.00;100699.84;4104363;29;20031;-82
2022/11/03 01:44:38;;;;;;;17.55;4.50;;;14.20;99.90;;;13.34;100.00;100685.69;4102762;29;20055;-82
2022/11/03 01:47:14;;;;;;;11.20;2.70;;;14.20;99.90;;;13.45;100.00;100701.19;4104024;29;20027;-82
2022/11/03 01:49:23;;;;;;;11.38;2.88;;;14.20;99.90;;;13.50;100.00;100710.25;4099978;29;20094;-81
2022/11/03 01:51:28;;;;;;;25.55;3.60;;;14.30;99.90;;;13.43;100.00;100688.13;4103110;29;20090;-82
2022/11/03 01:53:30;;;;;;;17.15;3.40;;;14.30;99.90;;;13.56;100.00;100698.97;4103206;29;20050;-82
2022/11/03 01:55:36;;;;;;;8.32;2.33;;;14.30;99.90;;;13.64;100.00;100704.22;4103351;29;20035;-82
2022/11/03 01:57:44;;;;;;;13.05;3.25;;;14.40;99.90;;;13.74;100.00;100698.66;4103062;29;20023;-82
2022/11/03 01:59:47;;;;;;;11.82;2.75;;;14.50;99.90;;;13.76;100.00;100691.38;4102618;29;20039;-81
2022/11/03 02:01:48;;;;;;;8.13;2.53;;;14.50;99.90;;;13.79;100.00;100686.56;4102879;29;20038;-80
2022/11/03 02:04:00;;;;;;;14.55;2.80;;;14.60;99.90;;;13.80;100.00;100672.28;4087123;29;20064;-82
2022/11/03 02:06:03;;;;;;;21.33;3.15;;;14.60;99.90;;;13.89;100.00;100673.03;4102519;29;20023;-81
2022/11/03 02:08:16;;;;;;;13.25;3.67;;;14.60;99.90;;;13.84;100.00;100662.13;4102915;29;20035;-81
2022/11/03 02:10:17;;;;;;;26.20;3.58;;;14.70;99.90;;;13.95;100.00;100669.66;4103157;29;20027;-81
2022/11/03 02:12:20;;;;;;;13.55;2.50;;;14.70;99.90;;;13.89;100.00;100658.97;4115956;28;20026;-82
2022/11/03 02:14:21;;;;;;;14.77;2.97;;;14.70;99.90;;;13.88;100.00;100655.47;4105030;28;20036;-81
2022/11/03 02:16:25;;;;;;;23.05;3.60;;;14.70;99.90;;;13.85;100.00;100651.38;4103020;29;20031;-82
2022/11/03 02:18:32;;;;;;;12.68;3.42;;;14.70;99.90;;;13.91;100.00;100641.88;4104000;29;20031;-82
2022/11/03 02:20:33;;;;;;;10.05;2.97;;;14.70;99.90;;;13.95;100.00;100637.81;4086756;29;20063;-82
2022/11/03 02:23:03;;;;;;;13.13;3.28;;;14.70;99.90;;;13.95;100.00;100640.47;4102620;29;20039;-82
2022/11/03 02:25:56;;;;;;;14.38;3.10;;;14.70;99.90;;;13.89;100.00;100633.25;4104236;29;20031;-82
2022/11/03 02:27:59;;;;;;;14.52;2.63;;;14.70;99.90;;;13.81;100.00;100620.91;4086428;29;20032;-82
2022/11/03 02:30:00;;;;;;;11.55;2.05;;;14.60;99.90;;;13.75;100.00;100604.88;4086118;29;20048;-83
2022/11/03 02:32:17;;;;;;;15.85;2.95;;;14.50;99.90;;;13.68;100.00;100612.72;4086214;29;20431;-82
2022/11/03 02:34:54;;;;;;;19.13;2.55;;;14.40;99.90;;;13.66;100.00;100598.00;4089617;29;20526;-82
2022/11/03 02:37:04;;;;;;;11.95;3.63;;;14.30;99.90;;;13.53;100.00;100601.25;4089318;29;20067;-82
2022/11/03 02:39:20;;;;;;;14.35;2.65;;;14.30;99.90;;;13.39;100.00;100583.50;4121695;28;20070;-82
2022/11/03 02:41:23;;;;;;;14.45;2.75;;;14.30;99.90;;;13.35;100.00;100571.59;4121688;28;20027;-82
2022/11/03 02:43:25;;;;;;;17.30;3.15;;;14.20;99.90;;;13.39;100.00;100582.66;4105259;29;20043;-81
2022/11/03 02:45:27;;;;;;;15.68;3.45;;;14.20;99.90;;;13.42;100.00;100563.75;4106531;29;20028;-81
2022/11/03 02:47:30;;;;;;;13.18;2.88;;;14.10;99.90;;;13.43;100.00;100573.38;4105642;29;20031;-82
2022/11/03 02:49:31;;;;;;;10.38;1.92;;;14.10;99.90;;;13.29;100.00;100562.53;4089421;29;20024;-81
2022/11/03 02:51:33;;;;;;;22.25;3.75;;;14.10;99.90;;;13.33;100.00;100560.34;4106817;29;20027;-82
2022/11/03 02:53:47;;;;;;;17.80;3.38;;;14.20;99.90;;;13.37;100.00;100559.00;4105594;29;20474;-81
2022/11/03 02:56:09;;;;;;;13.90;3.63;;;14.10;99.90;;;13.30;100.00;100564.19;4105462;29;20031;-82
2022/11/03 02:58:16;;;;;;;12.45;2.50;;;14.10;99.90;;;13.40;100.00;100563.97;4105366;29;20627;-81
2022/11/03 03:00:17;;;;;;;13.23;3.13;;;14.20;99.90;;;13.55;100.00;100571.94;4105363;29;20618;-81
2022/11/03 03:02:31;;;;;;;16.23;3.33;;;14.30;99.90;;;13.63;100.00;100570.03;4089107;29;20127;-82
2022/11/03 03:04:59;;;;;;;13.23;3.03;;;14.30;99.90;;;13.48;100.00;100539.19;4105028;29;20026;-81
2022/11/03 03:07:10;;;;;;;11.95;2.63;;;14.30;99.90;;;13.64;100.00;100560.25;4105413;29;20031;-81
2022/11/03 03:09:20;;;;;;;13.00;3.30;;;14.40;99.90;;;13.66;100.00;100548.47;4105310;29;20168;-82
2022/11/03 03:11:35;;;;;;;11.05;2.40;;;14.40;99.90;;;13.75;100.00;100538.59;4105446;29;20042;-82
2022/11/03 03:13:37;;;;;;;22.90;4.85;;;14.50;99.90;;;13.76;100.00;100527.84;4105359;29;20032;-82
2022/11/03 03:16:05;;;;;;;14.07;2.65;;;14.50;99.90;;;13.91;100.00;100508.44;4105405;29;20495;-82
2022/11/03 03:18:36;;;;;;;12.35;2.20;;;14.50;99.90;;;13.84;100.00;100500.41;4089147;29;20058;-82
2022/11/03 03:20:49;;;;;;;15.88;2.22;;;14.60;99.90;;;13.86;100.00;100474.50;4101999;29;20038;-82
2022/11/03 03:22:52;;;;;;;13.07;2.00;;;14.60;99.90;;;13.83;100.00;100480.19;4105247;29;20039;-82
2022/11/03 03:25:35;;;;;;;12.65;1.88;;;14.60;99.90;;;13.89;100.00;100468.03;4105318;29;20388;-82
2022/11/03 03:27:44;;;;;;;11.75;2.10;;;14.60;99.90;;;13.84;100.00;100471.22;4101794;29;20029;-82
2022/11/03 03:29:53;;;;;;;11.02;1.95;;;14.60;99.90;;;13.74;100.00;100449.47;4088852;29;20036;-82
2022/11/03 03:31:58;;;;;;;10.07;2.00;;;14.60;99.90;;;13.83;100.00;100461.63;4089246;29;20047;-82
2022/11/03 03:34:01;;;;;;;14.55;2.50;;;14.60;99.90;;;13.75;100.00;100451.13;4105063;29;20614;-82
2022/11/03 03:36:07;;;;;;;14.07;3.03;;;14.50;99.90;;;13.73;100.00;100450.50;4105880;29;20463;-82
2022/11/03 03:38:14;;;;;;;13.95;2.42;;;14.50;99.90;;;13.64;100.00;100439.16;4104655;29;20027;-83
2022/11/03 03:40:27;;;;;;;13.95;1.85;;;14.40;99.90;;;13.56;100.00;100435.78;4104932;29;20031;-82
2022/11/03 03:42:31;;;;;;;9.95;1.60;;;14.30;99.90;;;13.37;100.00;100426.53;4104472;29;20031;-82
2022/11/03 03:44:33;;;;;;;;;;;14.20;99.90;;;13.24;100.00;100431.63;4105013;28;20086;-82
2022/11/03 03:46:43;;;;;;;10.70;2.60;;;14.10;99.90;;;13.29;100.00;100448.63;4120672;28;19952;-82
2022/11/03 03:48:44;;;;;;;13.07;2.63;;;14.10;99.90;;;13.17;100.00;100426.22;4120560;28;20031;-83
2022/11/03 03:50:48;;;;;;;10.93;1.73;;;14.10;99.90;;;13.35;100.00;100436.47;4120476;28;20505;-82
2022/11/03 03:52:53;;;;;;;14.15;2.97;;;14.10;99.90;;;13.21;100.00;100405.50;4120613;28;20027;-83
2022/11/03 03:54:55;;;;;;;13.68;2.05;;;14.20;99.90;;;13.37;100.00;100421.25;4120000;28;20030;-82
2022/11/03 03:57:00;;;;;;;10.02;2.80;;;14.20;99.90;;;13.56;100.00;100417.25;4120672;28;20536;-82
2022/11/03 03:59:01;;;;;;;10.45;1.98;;;14.20;99.90;;;13.50;100.00;100407.38;4088732;29;20526;-82
2022/11/03 04:01:01;;;;;;;8.80;1.80;;;14.30;99.90;;;13.54;100.00;100412.09;4104303;29;20035;-81
2022/11/03 04:03:02;;;;;;;8.77;1.88;;;14.20;99.90;;;13.49;100.00;100395.94;4104473;29;20542;-82
2022/11/03 04:05:04;;;;;;;14.45;2.38;;;14.30;99.90;;;13.54;100.00;100401.50;4104425;29;20027;-82
2022/11/03 04:09:25;;;;;;;9.25;1.98;;;14.30;99.90;;;13.58;100.00;100391.38;4116570;28;20601;-82
2022/11/03 04:23:07;;;;;;;13.98;2.30;;;14.00;99.90;;;13.04;100.00;100341.28;4105704;29;20390;-82
2022/11/03 04:25:08;;;;;;;13.90;2.47;;;13.90;99.90;;;13.02;100.00;100353.84;4120048;28;20031;-82
2022/11/03 04:27:34;;;;;;;8.48;2.65;;;13.90;99.90;;;13.01;100.00;100354.88;4120211;28;20027;-83
2022/11/03 04:29:35;;;;;;;10.88;2.25;;;13.80;99.90;;;12.83;100.00;100325.28;4105488;28;20066;-82
2022/11/03 04:31:36;;;;;;;13.35;3.90;;;13.80;99.90;;;12.79;100.00;100323.97;4120255;28;20023;-82
2022/11/03 04:33:37;;;;;;;8.10;2.05;;;13.70;99.90;;;12.85;100.00;100331.19;4088094;29;20075;-82
2022/11/03 04:35:38;;;;;;;9.75;1.73;;;13.70;99.90;;;12.89;100.00;100336.97;4119639;28;20038;-82
2022/11/03 04:37:38;;;;;;;6.30;1.67;;;13.70;99.90;;;12.74;100.00;100319.25;4105120;29;20516;-82
2022/11/03 04:39:40;;;;;;;11.77;1.92;;;13.70;99.90;;;12.79;100.00;100321.31;4105122;29;20019;-82
2022/11/03 04:41:41;;;;;;;11.98;2.10;;;13.60;99.90;;;12.82;100.00;100314.84;4103781;29;20032;-83
2022/11/03 04:43:45;;;;;;;11.38;2.45;;;13.60;99.90;;;12.82;100.00;100320.97;4104237;29;20414;-82
2022/11/03 04:45:48;;;;;;;10.32;2.97;;;13.60;99.90;;;12.85;100.00;100310.03;4103628;29;20511;-82
2022/11/03 04:47:49;;;;;;;15.52;2.60;;;13.60;99.90;;;12.80;100.00;100311.56;4087868;29;20027;-82
2022/11/03 04:49:50;;;;;;;12.15;2.33;;;13.60;99.90;;;12.93;100.00;100309.13;4103447;29;20098;-81
2022/11/03 04:51:51;;;;;;;10.40;2.65;;;13.70;99.90;;;13.02;100.00;100305.41;4104990;29;20024;-81
2022/11/03 04:54:12;;;;;;;14.13;2.33;;;13.70;99.90;;;13.08;100.00;100304.69;4104917;29;20035;-81
2022/11/03 04:56:20;;;;;;;14.25;3.00;;;13.80;99.90;;;12.98;100.00;100278.44;4103251;28;20094;-81
2022/11/03 04:58:26;;;;;;;8.18;1.60;;;13.80;99.90;;;13.10;100.00;100276.19;4103334;29;20031;-81
2022/11/03 05:00:27;;;;;;;7.90;2.47;;;13.90;99.90;;;13.10;100.00;100262.97;4103735;29;20391;-81
2022/11/03 05:02:28;;;;;;;8.50;2.20;;;13.90;99.90;;;13.13;100.00;100244.88;4104631;29;20031;-81
2022/11/03 05:04:29;;;;;;;11.93;2.10;;;14.00;99.90;;;13.19;100.00;100249.44;4104419;29;20038;-81
2022/11/03 05:06:30;;;;;;;8.05;2.00;;;14.00;99.90;;;13.32;100.00;100274.44;4087909;29;20064;-82
2022/11/03 05:08:31;;;;;;;9.93;2.67;;;14.00;99.90;;;13.26;100.00;100245.03;4104759;29;20027;-81
2022/11/03 05:10:32;;;;;;;12.13;2.85;;;14.10;99.90;;;13.31;100.00;100252.44;4104662;29;20513;-81
2022/11/03 05:12:33;;;;;;;12.40;2.15;;;14.00;99.90;;;13.22;100.00;100233.19;4104476;29;20027;-82
2022/11/03 05:14:36;;;;;;;9.60;2.22;;;14.10;99.90;;;13.19;100.00;100227.41;4103486;29;20442;-82
2022/11/03 05:16:37;;;;;;;8.82;2.00;;;14.00;99.90;;;13.24;100.00;100248.88;4103373;29;20090;-81
2022/11/03 05:18:42;;;;;;;6.13;1.58;;;14.00;99.90;;;13.15;100.00;100234.91;4104592;29;20031;-82
2022/11/03 05:21:14;;;;;;;10.38;2.92;;;14.00;99.90;;;13.10;100.00;100218.75;4087031;29;20035;-82
2022/11/03 05:23:15;;;;;;;12.73;1.88;;;13.90;99.90;;;13.18;100.00;100221.31;4085586;29;20044;-82
2022/11/03 05:25:42;;;;;;;12.77;2.28;;;14.00;99.90;;;13.18;100.00;100221.31;4087246;29;20027;-81
2022/11/03 05:27:43;;;;;;;5.38;1.70;;;14.00;99.90;;;13.16;100.00;100207.44;4087252;29;20059;-81
2022/11/03 05:29:44;;;;;;;8.52;2.25;;;14.00;99.90;;;13.10;100.00;100187.00;4103615;29;20047;-81
2022/11/03 05:31:47;;;;;;;7.78;1.98;;;13.90;99.90;;;13.14;100.00;100204.13;4103067;29;20042;-81
2022/11/03 05:33:50;;;;;;;12.27;2.38;;;13.90;99.90;;;13.12;100.00;100211.44;4103264;29;20027;-82
2022/11/03 05:35:51;;;;;;;17.08;3.60;;;13.90;99.90;;;13.13;100.00;100209.63;4102963;29;20632;-81
2022/11/03 05:37:52;;;;;;;7.95;2.25;;;13.90;99.90;;;12.99;100.00;100176.03;4087106;29;20118;-82
2022/11/03 05:39:59;;;;;;;8.30;2.58;;;13.90;99.90;;;13.07;100.00;100192.63;4098850;29;20046;-82
2022/11/03 05:42:15;;;;;;;14.18;2.95;;;13.80;99.90;;;12.87;100.00;100170.38;4102777;29;20035;-82
2022/11/03 05:44:28;;;;;;;10.65;2.60;;;13.80;99.90;;;13.01;100.00;100188.06;4103140;29;20161;-81
2022/11/03 05:46:33;;;;;;;11.30;2.58;;;13.80;99.90;;;12.86;100.00;100152.84;4119338;28;20027;-82
2022/11/03 05:48:39;;;;;;;9.40;3.05;;;13.70;99.90;;;12.82;100.00;100146.28;4118538;28;20037;-81
2022/11/03 05:50:41;;;;;;;10.75;2.42;;;13.70;99.90;;;12.85;100.00;100155.66;4118864;28;20031;-82
2022/11/03 05:52:44;;;;;;;14.88;2.30;;;13.70;99.90;;;12.84;100.00;100164.63;4118876;28;20026;-81
2022/11/03 05:54:46;;;;;;;13.23;2.28;;;13.60;99.90;;;12.80;100.00;100137.72;4118679;28;20541;-81
2022/11/03 05:56:47;;;;;;;8.23;2.13;;;13.60;99.90;;;12.78;100.00;100151.09;4119106;28;20041;-81
2022/11/03 05:58:52;;;;;;;10.40;2.38;;;13.60;99.90;;;12.75;100.00;100138.25;4104458;29;20552;-81
2022/11/03 06:00:56;;;;;;;11.43;2.72;;;13.60;99.90;;;12.75;100.00;100129.50;4118575;28;20030;-81
2022/11/03 06:02:58;;;;;;;11.70;2.83;;;13.50;99.90;;;12.71;100.00;100133.53;4118441;28;20026;-82
2022/11/03 06:04:59;;;;;;;7.25;2.22;;;13.50;99.90;;;12.59;100.00;100114.66;4102765;29;20141;-82
2022/11/03 06:07:15;;;;;;;11.70;2.75;;;13.50;99.90;;;12.68;100.00;100129.44;4118222;28;20593;-82
2022/11/03 06:09:22;;;;;;;14.68;2.90;;;13.50;99.90;;;12.71;100.00;100136.16;4118127;28;20154;-81
2022/11/03 06:11:35;;;;;;;12.30;3.30;;;13.50;99.90;;;12.81;100.00;100138.53;4091065;29;20038;-82
2022/11/03 06:13:39;;;;;;;14.98;4.07;;;13.50;99.90;;;12.80;100.00;100124.47;4125182;28;20027;-81
2022/11/03 06:15:42;;;;;;;;;;;13.60;99.90;;;12.83;100.00;100125.94;4119222;28;20030;-81
2022/11/03 06:17:43;;;;;;;18.92;5.15;;;13.60;99.90;;;13.17;100.00;100132.25;4118923;28;19910;-82
2022/11/03 06:19:47;;;;;;;19.25;4.55;;;13.80;99.90;;;13.18;100.00;100110.06;4086723;29;20038;-82
2022/11/03 06:21:50;;;;;;;22.33;5.82;;;13.90;99.90;;;13.34;100.00;100129.38;4118597;28;20063;-81
2022/11/03 06:23:53;;;;;;;18.67;5.53;;;14.00;99.90;;;13.25;100.00;100089.78;4118549;28;20030;-82
2022/11/03 06:25:56;;;;;;;11.02;4.72;;;14.10;99.90;;;13.41;100.00;100123.13;4118803;28;20023;-81
2022/11/03 06:28:10;;;;;;;14.48;5.25;;;14.10;99.90;;;13.53;100.00;100097.75;4118495;28;20042;-82
2022/11/03 06:30:31;;;;;;;26.45;5.05;;;14.20;99.90;;;13.50;100.00;100092.84;4117776;28;20500;-82
2022/11/03 06:32:33;;;;;;;15.77;4.78;;;14.30;99.90;;;13.61;100.00;100095.00;4102409;29;20035;-82
2022/11/03 06:34:47;;;;;;;12.75;4.20;;;14.40;99.90;;;13.71;100.00;100099.94;4103616;29;20031;-81
2022/11/03 06:36:48;;;;;;;19.05;4.43;;;14.40;99.90;;;13.69;100.00;100083.44;4118276;28;20041;-82
2022/11/03 06:39:00;;;;;;;15.13;4.10;;;14.50;99.90;;;13.75;100.00;100085.31;4103649;29;20024;-81
2022/11/03 06:41:01;;;;;;;12.00;3.90;;;14.40;99.90;;;13.65;100.00;100063.63;4086400;29;20040;-82
2022/11/03 06:43:18;;;;;;;17.33;4.43;;;14.50;99.90;;;13.82;100.00;100075.59;4103761;29;20034;-81
2022/11/03 06:45:24;;;;;;;14.75;3.63;;;14.50;99.90;;;13.76;100.00;100058.63;4102318;29;20035;-81
2022/11/03 06:47:28;;;;;;;10.57;3.95;;;14.60;99.90;;;13.77;100.00;100054.13;4102704;29;20111;-82
2022/11/03 06:49:33;;;;;;;15.45;3.95;;;14.50;99.90;;;13.77;100.00;100048.81;4103529;29;20027;-81
2022/11/03 06:51:35;;;;;;;8.93;3.50;;;14.60;99.90;;;13.66;100.00;100028.16;4102402;29;20058;-82
2022/11/03 06:53:36;;;;;;;13.40;3.10;;;14.50;99.90;;;13.80;100.00;100043.13;4103620;29;20031;-82
2022/11/03 06:55:39;;;;;;;12.15;3.35;;;14.50;99.90;;;13.78;100.00;100042.50;4103799;29;20062;-82
2022/11/03 06:57:43;;;;;;;10.05;2.90;;;14.50;99.90;;;13.70;100.00;100013.50;4102502;29;20538;-82
2022/11/03 06:59:44;;;;;;;11.05;3.25;;;14.50;99.90;;;13.76;100.00;100018.88;4102287;29;20039;-82
2022/11/03 07:01:53;;;;;;;10.15;3.38;;;14.50;99.90;;;13.80;100.00;100029.88;4103276;29;20027;-81
2022/11/03 07:04:23;;;;;;;13.50;3.22;;;14.50;99.90;;;13.87;100.00;100006.88;4095852;29;20027;-81
2022/11/03 07:06:30;;;;;;;10.32;2.67;;;14.60;99.90;;;13.86;100.00;99997.28;4102419;29;20027;-84
2022/11/03 07:08:47;;;;;;;9.95;2.20;;;14.60;99.90;;;13.90;100.00;99995.06;4102305;29;20030;-84
2022/11/03 07:10:57;;;;;;;7.80;2.03;;;14.70;99.90;;;13.92;100.00;99985.91;4102507;29;20035;-83
2022/11/03 07:13:09;;;;;;;7.18;2.85;;;14.70;99.90;;;13.94;100.00;99981.25;4102128;29;20042;-83
2022/11/03 07:15:27;;;;;;;9.52;3.20;;;14.70;99.90;;;14.03;100.00;99997.78;4102495;29;20031;-84
2022/11/03 07:17:28;;;;;;;8.30;1.83;;;14.80;99.90;;;14.07;100.00;100009.63;4102359;29;20027;-83
2022/11/03 07:19:39;;;;;;;10.00;2.47;;;14.80;99.90;;;14.10;100.00;100006.59;4103904;28;20073;-83
2022/11/03 07:21:51;;;;;;;7.93;2.10;;;14.80;99.90;;;14.12;100.00;100013.34;4106130;29;20054;-84
2022/11/03 07:23:52;;;;;;;10.20;2.30;;;14.80;99.90;;;14.17;100.00;100023.38;4105030;29;20136;-84
2022/11/03 07:25:58;;;;;;;7.95;1.92;;;14.90;99.90;;;14.24;100.00;100011.78;4106337;29;20023;-86
2022/11/03 07:28:01;;;;;;;7.72;2.45;;;14.90;99.90;;;14.31;100.00;100023.22;4105030;29;20487;-82
2022/11/03 07:30:22;;;;;;;9.77;2.38;;;15.00;99.90;;;14.14;100.00;100018.44;4105066;28;20394;-83
2022/11/03 07:32:32;;;;;;;10.05;2.90;;;15.00;99.90;;;14.32;100.00;100019.59;4106060;29;20114;-83
2022/11/03 07:34:33;;;;;;;7.45;2.33;;;15.00;99.90;;;14.23;100.00;100007.47;4088907;29;20034;-82
2022/11/03 07:36:34;;;;;;;8.23;1.45;;;15.00;99.90;;;14.34;100.00;100043.25;4106055;29;20039;-84
2022/11/03 07:38:35;;;;;;;6.57;1.63;;;15.00;99.90;;;14.29;100.00;100046.50;4088599;29;20027;-82
2022/11/03 07:40:37;;;;;;;9.43;1.77;;;15.00;99.90;;;14.27;100.00;100053.84;4105980;29;20510;-83
2022/11/03 07:42:38;;;;;;;11.30;2.60;;;15.00;99.90;;;14.16;100.00;100043.75;4105116;29;20059;-83
2022/11/03 07:44:40;;;;;;;13.43;2.60;;;15.00;99.90;;;14.11;100.00;100043.53;4105652;29;20034;-83
2022/11/03 07:46:42;;;;;;;8.52;2.65;;;14.90;99.90;;;13.95;100.00;100043.84;4120580;28;20514;-82
2022/11/03 07:49:02;;;;;;;6.18;1.83;;;14.80;99.90;;;14.05;100.00;100041.66;4120719;28;20033;-84
2022/11/03 07:51:20;;;;;;;13.73;2.20;;;14.80;99.90;;;14.01;100.00;100053.66;4096261;29;20028;-84
2022/11/03 07:53:55;;;;;;;7.43;3.15;;;14.70;99.90;;;13.89;100.00;100057.06;4088522;29;20030;-85
2022/11/03 07:55:57;;;;;;;11.10;2.33;;;14.60;99.90;;;13.85;100.00;100059.28;4120475;28;20039;-84
2022/11/03 07:57:58;;;;;;;6.35;1.63;;;14.60;99.90;;;13.81;100.00;100073.94;4104424;29;20027;-85
2022/11/03 08:00:21;;;;;;;8.00;1.50;;;14.50;99.90;;;13.77;100.00;100075.31;4105764;28;20031;-85
2022/11/03 08:02:57;;;;;;;8.55;1.92;;;14.50;99.90;;;13.68;100.00;100113.59;4119228;28;20042;-85
2022/11/03 08:04:59;;;;;;;6.95;2.20;;;14.40;99.90;;;13.55;100.00;100147.94;4104892;29;20047;-85
2022/11/03 08:07:00;;;;;;;10.25;1.98;;;14.30;99.90;;;13.22;100.00;100144.94;4120479;28;20097;-84
2022/11/03 08:09:01;;;;;;;3.92;1.20;;;14.10;99.90;;;13.07;100.00;100144.13;4130301;28;20022;-84
2022/11/03 08:11:02;;;;;;;2.47;0.63;;;13.90;99.90;;;12.73;100.00;100144.72;4107752;28;20495;-85
2022/11/03 08:13:02;;;;;;;2.55;0.70;;;13.70;99.90;;;12.51;100.00;100135.09;4104590;29;20034;-85
2022/11/03 08:15:04;;;;;;;2.65;0.68;;;13.40;99.90;;;12.55;100.00;100146.94;4104271;29;20028;-85
2022/11/03 08:17:05;;;;;;;5.10;0.57;;;13.30;99.90;;;12.40;100.00;100138.19;4105394;29;20035;-84
2022/11/03 08:19:06;;;;;;;1.45;0.60;;;13.20;99.90;;;12.22;100.00;100117.38;4103849;29;20038;-85
2022/11/03 08:21:07;;;;;;;2.30;0.63;;;13.10;99.90;;;12.30;100.00;100124.41;4105450;29;20524;-84
2022/11/03 08:23:10;;;;;;;2.65;0.52;;;13.00;99.90;;;12.24;100.00;100127.78;4104252;29;20027;-84
2022/11/03 08:25:11;;;;;;;1.05;0.73;;;13.00;99.90;;;12.15;100.00;100122.59;4104183;29;20039;-85
2022/11/03 08:27:12;;;;;;;1.73;0.52;;;12.90;99.90;;;12.15;100.00;100122.59;4105228;29;20019;-85
2022/11/03 08:29:12;;;;;;;2.38;0.55;;;12.80;99.90;;;12.11;100.00;100129.25;4105170;29;20083;-84
2022/11/03 08:31:14;;;;;;;4.32;0.75;;;12.80;99.90;;;12.10;100.00;100117.00;4104913;28;20027;-85
2022/11/03 08:33:15;;;;;;;2.03;0.47;;;12.80;99.90;;;12.23;100.00;100119.03;4104185;29;20039;-85
2022/11/03 08:35:16;;;;;;;2.67;0.65;;;12.80;99.90;;;12.27;100.00;100114.22;4104828;29;20024;-84
2022/11/03 08:37:16;;;;;;;2.15;0.93;;;12.90;99.90;;;12.17;100.00;100101.25;4105242;29;20056;-85
2022/11/03 08:39:17;;;;;;;0.88;0.32;;;12.90;99.90;;;12.10;100.00;100109.09;4105360;29;20028;-85
2022/11/03 08:41:18;;;;;;;1.75;0.50;;;12.90;99.90;;;12.05;100.00;100118.56;4087864;29;20039;-85
2022/11/03 08:43:19;;;;;;;1.25;0.40;;;12.80;99.90;;;11.89;100.00;100094.91;4088132;29;20475;-85
2022/11/03 08:45:20;;;;;;;0.95;0.35;;;12.80;99.90;;;11.94;100.00;100116.38;4089048;29;20059;-85
2022/11/03 08:47:21;;;;;;;1.73;0.50;;;12.70;99.90;;;11.92;100.00;100119.16;4103932;29;20023;-86
2022/11/03 08:49:22;;;;;;;1.00;0.32;;;12.70;99.90;;;12.00;100.00;100126.22;4103817;29;20098;-84
2022/11/03 08:51:23;;;;;;;1.65;0.50;;;12.70;99.90;;;12.01;100.00;100126.03;4104943;29;20086;-85